sensor_id;sensor_type;location;lat;lon;timestamp;temperature;humidity
13464;DHT22;6804;48.774;9.174;2023-05-10T00:01:03;17.10;99.90
13464;DHT22;6804;48.774;9.174;2023-05-10T00:03:31;17.00;99.90
13464;DHT22;6804;48.774;9.174;2023-05-10T00:05:58;17.00;99.90
13464;DHT22;6804;48.774;9.174;2023-05-10T00:08:25;16.90;99.90
13464;DHT22;6804;48.774;9.174;2023-05-10T00:10:54;16.90;99.90
13464;DHT22;6804;48.774;9.174;2023-05-10T00:13:21;16.80;99.90
13464;DHT22;6804;48.774;9.174;2023-05-10T00:15:51;16.80;99.90
13464;DHT22;6804;48.774;9.174;2023-05-10T00:18:21;16.80;99.90
13464;DHT22;6804;48.774;9.174;2023-05-10T00:20:51;16.70;99.90
13464;DHT22;6804;48.774;9.174;2023-05-10T00:23:18;16.60;99.90
13464;DHT22;6804;48.774;9.174;2023-05-10T00:25:52;16.60;99.90
13464;DHT22;6804;48.774;9.174;2023-05-10T00:28:20;16.60;99.90
13464;DHT22;6804;48.774;9.174;2023-05-10T00:30:47;16.50;99.90
13464;DHT22;6804;48.774;9.174;2023-05-10T00:33:15;16.40;99.90
13464;DHT22;6804;48.774;9.174;2023-05-10T00:35:42;16.40;99.90
13464;DHT22;6804;48.774;9.174;2023-05-10T00:38:12;16.40;99.90
13464;DHT22;6804;48.774;9.174;2023-05-10T00:40:41;16.30;99.90
13464;DHT22;6804;48.774;9.174;2023-05-10T00:43:09;16.40;99.90
13464;DHT22;6804;48.774;9.174;2023-05-10T00:45:41;16.40;99.90
13464;DHT22;6804;48.774;9.174;2023-05-10T00:48:08;16.30;99.90
13464;DHT22;6804;48.774;9.174;2023-05-10T00:50:38;16.30;99.90
13464;DHT22;6804;48.774;9.174;2023-05-10T00:53:06;16.30;99.90
13464;DHT22;6804;48.774;9.174;2023-05-10T00:55:34;16.30;99.90
13464;DHT22;6804;48.774;9.174;2023-05-10T00:58:04;16.30;99.90
13464;DHT22;6804;48.774;9.174;2023-05-10T01:00:33;16.30;99.90
13464;DHT22;6804;48.774;9.174;2023-05-10T01:03:02;16.30;99.90
13464;DHT22;6804;48.774;9.174;2023-05-10T01:05:30;16.30;99.90
13464;DHT22;6804;48.774;9.174;2023-05-10T01:08:03;16.30;99.90
13464;DHT22;6804;48.774;9.174;2023-05-10T01:10:30;16.20;99.90
13464;DHT22;6804;48.774;9.174;2023-05-10T01:12:59;16.20;99.90
13464;DHT22;6804;48.774;9.174;2023-05-10T01:15:30;16.20;99.90
13464;DHT22;6804;48.774;9.174;2023-05-10T01:17:58;16.10;99.90
13464;DHT22;6804;48.774;9.174;2023-05-10T01:20:35;16.10;99.90
13464;DHT22;6804;48.774;9.174;2023-05-10T01:23:27;16.10;99.90
13464;DHT22;6804;48.774;9.174;2023-05-10T01:29:11;16.10;99.90
13464;DHT22;6804;48.774;9.174;2023-05-10T01:35:00;16.00;99.90
13464;DHT22;6804;48.774;9.174;2023-05-10T01:37:40;16.00;99.90
13464;DHT22;6804;48.774;9.174;2023-05-10T01:40:17;16.00;99.90
13464;DHT22;6804;48.774;9.174;2023-05-10T01:42:53;16.00;99.90
13464;DHT22;6804;48.774;9.174;2023-05-10T01:45:27;16.00;99.90
13464;DHT22;6804;48.774;9.174;2023-05-10T01:48:04;16.00;99.90
13464;DHT22;6804;48.774;9.174;2023-05-10T01:50:35;16.00;99.90
13464;DHT22;6804;48.774;9.174;2023-05-10T01:53:06;16.00;99.90
13464;DHT22;6804;48.774;9.174;2023-05-10T01:55:39;16.10;99.90
13464;DHT22;6804;48.774;9.174;2023-05-10T01:58:13;16.10;99.90
13464;DHT22;6804;48.774;9.174;2023-05-10T02:00:43;16.10;99.90
13464;DHT22;6804;48.774;9.174;2023-05-10T02:03:15;16.10;99.90
13464;DHT22;6804;48.774;9.174;2023-05-10T02:05:46;16.10;99.90
13464;DHT22;6804;48.774;9.174;2023-05-10T02:08:17;16.10;99.90
13464;DHT22;6804;48.774;9.174;2023-05-10T02:10:45;16.20;99.90
13464;DHT22;6804;48.774;9.174;2023-05-10T02:13:14;16.10;99.90
13464;DHT22;6804;48.774;9.174;2023-05-10T02:15:43;16.10;99.90
13464;DHT22;6804;48.774;9.174;2023-05-10T02:18:13;16.10;99.90
13464;DHT22;6804;48.774;9.174;2023-05-10T02:20:46;16.10;99.90
13464;DHT22;6804;48.774;9.174;2023-05-10T02:23:14;16.10;99.90
13464;DHT22;6804;48.774;9.174;2023-05-10T02:25:43;16.20;99.90
13464;DHT22;6804;48.774;9.174;2023-05-10T02:28:12;16.20;99.90
13464;DHT22;6804;48.774;9.174;2023-05-10T02:30:40;16.20;99.90
13464;DHT22;6804;48.774;9.174;2023-05-10T02:33:09;16.20;99.90
13464;DHT22;6804;48.774;9.174;2023-05-10T02:35:38;16.10;99.90
13464;DHT22;6804;48.774;9.174;2023-05-10T02:38:07;16.10;99.90
13464;DHT22;6804;48.774;9.174;2023-05-10T02:40:37;16.10;99.90
13464;DHT22;6804;48.774;9.174;2023-05-10T02:43:06;16.10;99.90
13464;DHT22;6804;48.774;9.174;2023-05-10T02:45:36;16.10;99.90
13464;DHT22;6804;48.774;9.174;2023-05-10T02:48:05;16.10;99.90
13464;DHT22;6804;48.774;9.174;2023-05-10T02:50:34;16.10;99.90
13464;DHT22;6804;48.774;9.174;2023-05-10T02:53:10;16.10;99.90
13464;DHT22;6804;48.774;9.174;2023-05-10T02:55:40;16.10;99.90
13464;DHT22;6804;48.774;9.174;2023-05-10T02:58:08;16.20;99.90
13464;DHT22;6804;48.774;9.174;2023-05-10T03:00:35;16.10;99.90
13464;DHT22;6804;48.774;9.174;2023-05-10T03:03:06;16.10;99.90
13464;DHT22;6804;48.774;9.174;2023-05-10T03:05:34;16.00;99.90
13464;DHT22;6804;48.774;9.174;2023-05-10T03:08:01;16.00;99.90
13464;DHT22;6804;48.774;9.174;2023-05-10T03:10:48;16.00;99.90
13464;DHT22;6804;48.774;9.174;2023-05-10T03:13:32;16.10;99.90
13464;DHT22;6804;48.774;9.174;2023-05-10T03:16:07;16.10;99.90
13464;DHT22;6804;48.774;9.174;2023-05-10T03:18:41;16.10;99.90
13464;DHT22;6804;48.774;9.174;2023-05-10T03:21:11;16.10;99.90
13464;DHT22;6804;48.774;9.174;2023-05-10T03:23:45;16.10;99.90
13464;DHT22;6804;48.774;9.174;2023-05-10T03:26:17;16.10;99.90
13464;DHT22;6804;48.774;9.174;2023-05-10T03:28:48;16.10;99.90
13464;DHT22;6804;48.774;9.174;2023-05-10T03:31:17;16.00;99.90
13464;DHT22;6804;48.774;9.174;2023-05-10T03:33:47;16.00;99.90
13464;DHT22;6804;48.774;9.174;2023-05-10T03:36:15;16.00;99.90
13464;DHT22;6804;48.774;9.174;2023-05-10T03:38:42;16.00;99.90
13464;DHT22;6804;48.774;9.174;2023-05-10T03:41:10;16.00;99.90
13464;DHT22;6804;48.774;9.174;2023-05-10T03:43:38;16.00;99.90
13464;DHT22;6804;48.774;9.174;2023-05-10T03:46:06;16.00;99.90
13464;DHT22;6804;48.774;9.174;2023-05-10T03:48:36;16.00;99.90
13464;DHT22;6804;48.774;9.174;2023-05-10T03:51:07;16.00;99.90
13464;DHT22;6804;48.774;9.174;2023-05-10T03:53:34;15.90;99.90
13464;DHT22;6804;48.774;9.174;2023-05-10T03:56:04;15.90;99.90
13464;DHT22;6804;48.774;9.174;2023-05-10T03:58:31;15.90;99.90
13464;DHT22;6804;48.774;9.174;2023-05-10T04:01:02;15.90;99.90
13464;DHT22;6804;48.774;9.174;2023-05-10T04:03:30;15.90;99.90
13464;DHT22;6804;48.774;9.174;2023-05-10T04:06:00;15.90;99.90
13464;DHT22;6804;48.774;9.174;2023-05-10T04:08:27;15.90;99.90
13464;DHT22;6804;48.774;9.174;2023-05-10T04:11:05;15.90;99.90
13464;DHT22;6804;48.774;9.174;2023-05-10T04:13:33;15.80;99.90
13464;DHT22;6804;48.774;9.174;2023-05-10T04:16:05;15.80;99.90
13464;DHT22;6804;48.774;9.174;2023-05-10T04:18:33;15.80;99.90
13464;DHT22;6804;48.774;9.174;2023-05-10T04:21:03;15.80;99.90
13464;DHT22;6804;48.774;9.174;2023-05-10T04:23:33;15.80;99.90
13464;DHT22;6804;48.774;9.174;2023-05-10T04:26:05;15.80;99.90
13464;DHT22;6804;48.774;9.174;2023-05-10T04:28:35;15.80;99.90
13464;DHT22;6804;48.774;9.174;2023-05-10T04:31:08;15.80;99.90
13464;DHT22;6804;48.774;9.174;2023-05-10T04:33:39;15.80;99.90
13464;DHT22;6804;48.774;9.174;2023-05-10T04:36:06;15.80;99.90
13464;DHT22;6804;48.774;9.174;2023-05-10T04:38:34;15.80;99.90
13464;DHT22;6804;48.774;9.174;2023-05-10T04:41:05;15.80;99.90
13464;DHT22;6804;48.774;9.174;2023-05-10T04:43:36;15.80;99.90
13464;DHT22;6804;48.774;9.174;2023-05-10T04:46:08;15.80;99.90
13464;DHT22;6804;48.774;9.174;2023-05-10T04:48:35;15.80;99.90
13464;DHT22;6804;48.774;9.174;2023-05-10T04:51:03;15.80;99.90
13464;DHT22;6804;48.774;9.174;2023-05-10T04:53:32;15.80;99.90
13464;DHT22;6804;48.774;9.174;2023-05-10T04:56:02;15.80;99.90
13464;DHT22;6804;48.774;9.174;2023-05-10T04:58:29;15.80;99.90
13464;DHT22;6804;48.774;9.174;2023-05-10T05:00:56;15.80;99.90
13464;DHT22;6804;48.774;9.174;2023-05-10T05:03:25;15.80;99.90
13464;DHT22;6804;48.774;9.174;2023-05-10T05:05:56;15.80;99.90
13464;DHT22;6804;48.774;9.174;2023-05-10T05:08:23;15.80;99.90
13464;DHT22;6804;48.774;9.174;2023-05-10T05:10:51;15.90;99.90
13464;DHT22;6804;48.774;9.174;2023-05-10T05:13:18;15.90;99.90
13464;DHT22;6804;48.774;9.174;2023-05-10T05:15:48;16.00;99.90
13464;DHT22;6804;48.774;9.174;2023-05-10T05:18:15;16.00;99.90
13464;DHT22;6804;48.774;9.174;2023-05-10T05:20:47;16.00;99.90
13464;DHT22;6804;48.774;9.174;2023-05-10T05:23:15;16.00;99.90
13464;DHT22;6804;48.774;9.174;2023-05-10T05:25:42;16.00;99.90
13464;DHT22;6804;48.774;9.174;2023-05-10T05:28:10;16.00;99.90
13464;DHT22;6804;48.774;9.174;2023-05-10T05:30:38;16.00;99.90
13464;DHT22;6804;48.774;9.174;2023-05-10T05:33:07;16.10;99.90
13464;DHT22;6804;48.774;9.174;2023-05-10T05:35:37;16.10;99.90
13464;DHT22;6804;48.774;9.174;2023-05-10T05:38:09;16.10;99.90
13464;DHT22;6804;48.774;9.174;2023-05-10T05:40:39;16.10;99.90
13464;DHT22;6804;48.774;9.174;2023-05-10T05:43:06;16.20;99.90
13464;DHT22;6804;48.774;9.174;2023-05-10T05:45:34;16.20;99.90
13464;DHT22;6804;48.774;9.174;2023-05-10T05:48:05;16.20;99.90
13464;DHT22;6804;48.774;9.174;2023-05-10T05:50:35;16.30;99.90
13464;DHT22;6804;48.774;9.174;2023-05-10T05:53:03;16.30;99.90
13464;DHT22;6804;48.774;9.174;2023-05-10T05:55:32;16.30;99.90
13464;DHT22;6804;48.774;9.174;2023-05-10T05:57:59;16.30;99.90
13464;DHT22;6804;48.774;9.174;2023-05-10T06:00:30;16.30;99.90
13464;DHT22;6804;48.774;9.174;2023-05-10T06:03:01;16.30;99.90
13464;DHT22;6804;48.774;9.174;2023-05-10T06:05:29;16.30;99.90
13464;DHT22;6804;48.774;9.174;2023-05-10T06:08:03;16.30;99.90
13464;DHT22;6804;48.774;9.174;2023-05-10T06:10:33;16.30;99.90
13464;DHT22;6804;48.774;9.174;2023-05-10T06:13:00;16.30;99.90
13464;DHT22;6804;48.774;9.174;2023-05-10T06:15:28;16.40;99.90
13464;DHT22;6804;48.774;9.174;2023-05-10T06:18:04;16.40;99.90
13464;DHT22;6804;48.774;9.174;2023-05-10T06:20:32;16.50;99.90
13464;DHT22;6804;48.774;9.174;2023-05-10T06:22:59;16.50;99.90
13464;DHT22;6804;48.774;9.174;2023-05-10T06:25:27;16.40;99.90
13464;DHT22;6804;48.774;9.174;2023-05-10T06:27:59;16.50;99.90
13464;DHT22;6804;48.774;9.174;2023-05-10T06:30:29;16.60;99.90
13464;DHT22;6804;48.774;9.174;2023-05-10T06:32:57;16.60;99.90
13464;DHT22;6804;48.774;9.174;2023-05-10T06:35:29;16.60;99.90
13464;DHT22;6804;48.774;9.174;2023-05-10T06:37:57;16.60;99.90
13464;DHT22;6804;48.774;9.174;2023-05-10T06:40:27;16.60;99.90
13464;DHT22;6804;48.774;9.174;2023-05-10T06:43:01;16.70;99.90
13464;DHT22;6804;48.774;9.174;2023-05-10T06:45:29;16.70;99.90
13464;DHT22;6804;48.774;9.174;2023-05-10T06:47:57;16.70;99.90
13464;DHT22;6804;48.774;9.174;2023-05-10T06:50:26;16.70;99.90
13464;DHT22;6804;48.774;9.174;2023-05-10T06:52:54;16.60;99.90
13464;DHT22;6804;48.774;9.174;2023-05-10T06:55:23;16.60;99.90
13464;DHT22;6804;48.774;9.174;2023-05-10T06:57:52;16.60;99.90
13464;DHT22;6804;48.774;9.174;2023-05-10T07:00:24;16.60;99.90
13464;DHT22;6804;48.774;9.174;2023-05-10T07:02:51;16.50;99.90
13464;DHT22;6804;48.774;9.174;2023-05-10T07:05:19;16.50;99.90
13464;DHT22;6804;48.774;9.174;2023-05-10T07:07:47;16.40;99.90
13464;DHT22;6804;48.774;9.174;2023-05-10T07:10:15;16.40;99.90
13464;DHT22;6804;48.774;9.174;2023-05-10T07:12:42;16.50;99.90
13464;DHT22;6804;48.774;9.174;2023-05-10T07:15:12;16.50;99.90
13464;DHT22;6804;48.774;9.174;2023-05-10T07:17:43;16.60;99.90
13464;DHT22;6804;48.774;9.174;2023-05-10T07:20:16;16.60;99.90
13464;DHT22;6804;48.774;9.174;2023-05-10T07:22:43;16.70;99.90
13464;DHT22;6804;48.774;9.174;2023-05-10T07:25:29;16.80;99.90
13464;DHT22;6804;48.774;9.174;2023-05-10T07:27:57;16.80;99.90
13464;DHT22;6804;48.774;9.174;2023-05-10T07:30:24;16.90;99.90
13464;DHT22;6804;48.774;9.174;2023-05-10T07:32:52;16.90;99.90
13464;DHT22;6804;48.774;9.174;2023-05-10T07:35:20;17.00;99.90
13464;DHT22;6804;48.774;9.174;2023-05-10T07:37:50;17.00;99.90
13464;DHT22;6804;48.774;9.174;2023-05-10T07:40:23;17.10;99.90
13464;DHT22;6804;48.774;9.174;2023-05-10T07:42:53;17.20;99.90
13464;DHT22;6804;48.774;9.174;2023-05-10T07:45:24;17.20;99.90
13464;DHT22;6804;48.774;9.174;2023-05-10T07:47:51;17.20;99.90
13464;DHT22;6804;48.774;9.174;2023-05-10T07:50:22;17.20;99.90
13464;DHT22;6804;48.774;9.174;2023-05-10T07:52:52;17.20;99.90
13464;DHT22;6804;48.774;9.174;2023-05-10T07:55:20;17.20;99.90
13464;DHT22;6804;48.774;9.174;2023-05-10T07:57:55;17.20;99.90
13464;DHT22;6804;48.774;9.174;2023-05-10T08:00:22;17.20;99.90
13464;DHT22;6804;48.774;9.174;2023-05-10T08:02:50;17.20;99.90
13464;DHT22;6804;48.774;9.174;2023-05-10T08:05:20;17.20;99.90
13464;DHT22;6804;48.774;9.174;2023-05-10T08:07:50;17.20;99.90
13464;DHT22;6804;48.774;9.174;2023-05-10T08:10:17;17.20;99.90
13464;DHT22;6804;48.774;9.174;2023-05-10T08:12:45;17.20;99.90
13464;DHT22;6804;48.774;9.174;2023-05-10T08:15:17;17.20;99.90
13464;DHT22;6804;48.774;9.174;2023-05-10T08:17:45;17.20;99.90
13464;DHT22;6804;48.774;9.174;2023-05-10T08:20:15;17.30;99.90
13464;DHT22;6804;48.774;9.174;2023-05-10T08:22:45;17.30;99.90
13464;DHT22;6804;48.774;9.174;2023-05-10T08:25:13;17.40;99.90
13464;DHT22;6804;48.774;9.174;2023-05-10T08:27:40;17.40;99.90
13464;DHT22;6804;48.774;9.174;2023-05-10T08:30:13;17.30;99.90
13464;DHT22;6804;48.774;9.174;2023-05-10T08:32:45;17.30;99.90
13464;DHT22;6804;48.774;9.174;2023-05-10T08:35:13;17.30;99.90
13464;DHT22;6804;48.774;9.174;2023-05-10T08:37:41;17.30;99.90
13464;DHT22;6804;48.774;9.174;2023-05-10T08:40:12;17.30;99.90
13464;DHT22;6804;48.774;9.174;2023-05-10T08:42:41;17.30;99.90
13464;DHT22;6804;48.774;9.174;2023-05-10T08:45:10;17.30;99.90
13464;DHT22;6804;48.774;9.174;2023-05-10T08:47:45;17.30;99.90
13464;DHT22;6804;48.774;9.174;2023-05-10T08:50:15;17.30;99.90
13464;DHT22;6804;48.774;9.174;2023-05-10T08:52:45;17.30;99.90
13464;DHT22;6804;48.774;9.174;2023-05-10T08:55:15;17.30;99.90
13464;DHT22;6804;48.774;9.174;2023-05-10T08:57:43;17.40;99.90
13464;DHT22;6804;48.774;9.174;2023-05-10T09:00:15;17.30;99.90
13464;DHT22;6804;48.774;9.174;2023-05-10T09:02:45;17.40;99.90
13464;DHT22;6804;48.774;9.174;2023-05-10T09:05:15;17.30;99.90
13464;DHT22;6804;48.774;9.174;2023-05-10T09:07:43;17.40;99.90
13464;DHT22;6804;48.774;9.174;2023-05-10T09:10:14;17.50;99.90
13464;DHT22;6804;48.774;9.174;2023-05-10T09:12:45;17.40;99.90
13464;DHT22;6804;48.774;9.174;2023-05-10T09:15:15;17.50;99.90
13464;DHT22;6804;48.774;9.174;2023-05-10T09:17:47;17.50;99.90
13464;DHT22;6804;48.774;9.174;2023-05-10T09:20:17;17.50;99.90
13464;DHT22;6804;48.774;9.174;2023-05-10T09:22:45;17.50;99.90
13464;DHT22;6804;48.774;9.174;2023-05-10T09:25:17;17.50;99.90
13464;DHT22;6804;48.774;9.174;2023-05-10T09:27:47;17.50;99.90
13464;DHT22;6804;48.774;9.174;2023-05-10T09:30:23;17.40;99.90
13464;DHT22;6804;48.774;9.174;2023-05-10T09:32:55;17.40;99.90
13464;DHT22;6804;48.774;9.174;2023-05-10T09:35:25;17.30;99.90
13464;DHT22;6804;48.774;9.174;2023-05-10T09:38:00;17.30;99.90
13464;DHT22;6804;48.774;9.174;2023-05-10T09:40:32;17.40;99.90
13464;DHT22;6804;48.774;9.174;2023-05-10T09:43:04;17.40;99.90
13464;DHT22;6804;48.774;9.174;2023-05-10T09:45:34;17.50;99.90
13464;DHT22;6804;48.774;9.174;2023-05-10T09:48:05;17.60;99.90
13464;DHT22;6804;48.774;9.174;2023-05-10T09:50:34;17.60;99.90
13464;DHT22;6804;48.774;9.174;2023-05-10T09:53:07;17.80;99.90
13464;DHT22;6804;48.774;9.174;2023-05-10T09:55:43;17.80;99.90
13464;DHT22;6804;48.774;9.174;2023-05-10T09:58:13;17.90;99.90
13464;DHT22;6804;48.774;9.174;2023-05-10T10:00:49;18.00;99.90
13464;DHT22;6804;48.774;9.174;2023-05-10T10:03:23;18.20;99.90
13464;DHT22;6804;48.774;9.174;2023-05-10T10:05:52;18.20;99.90
13464;DHT22;6804;48.774;9.174;2023-05-10T10:08:24;18.20;99.90
13464;DHT22;6804;48.774;9.174;2023-05-10T10:10:53;18.20;99.90
13464;DHT22;6804;48.774;9.174;2023-05-10T10:13:26;18.20;99.90
13464;DHT22;6804;48.774;9.174;2023-05-10T10:15:58;18.30;99.90
13464;DHT22;6804;48.774;9.174;2023-05-10T10:18:27;18.30;99.90
13464;DHT22;6804;48.774;9.174;2023-05-10T10:20:56;18.40;99.90
13464;DHT22;6804;48.774;9.174;2023-05-10T10:23:25;18.40;99.90
13464;DHT22;6804;48.774;9.174;2023-05-10T10:25:54;18.40;99.90
13464;DHT22;6804;48.774;9.174;2023-05-10T10:28:30;18.40;99.90
13464;DHT22;6804;48.774;9.174;2023-05-10T10:31:11;18.50;99.90
13464;DHT22;6804;48.774;9.174;2023-05-10T10:33:55;18.50;99.90
13464;DHT22;6804;48.774;9.174;2023-05-10T10:36:24;18.40;99.90
13464;DHT22;6804;48.774;9.174;2023-05-10T10:39:00;18.50;99.90
13464;DHT22;6804;48.774;9.174;2023-05-10T10:41:32;18.40;99.90
13464;DHT22;6804;48.774;9.174;2023-05-10T10:47:22;18.40;99.90
13464;DHT22;6804;48.774;9.174;2023-05-10T10:50:07;18.40;99.90
13464;DHT22;6804;48.774;9.174;2023-05-10T10:52:38;18.30;99.90
13464;DHT22;6804;48.774;9.174;2023-05-10T10:55:10;18.30;99.90
13464;DHT22;6804;48.774;9.174;2023-05-10T10:57:49;18.00;99.90
13464;DHT22;6804;48.774;9.174;2023-05-10T11:00:26;17.90;99.90
13464;DHT22;6804;48.774;9.174;2023-05-10T11:02:57;17.80;99.90
13464;DHT22;6804;48.774;9.174;2023-05-10T11:05:38;17.60;99.90
13464;DHT22;6804;48.774;9.174;2023-05-10T11:08:26;17.60;99.90
13464;DHT22;6804;48.774;9.174;2023-05-10T11:11:09;17.50;99.90
13464;DHT22;6804;48.774;9.174;2023-05-10T11:13:41;17.30;99.90
13464;DHT22;6804;48.774;9.174;2023-05-10T11:16:18;17.20;99.90
13464;DHT22;6804;48.774;9.174;2023-05-10T11:19:01;17.10;99.90
13464;DHT22;6804;48.774;9.174;2023-05-10T11:21:32;17.00;99.90
13464;DHT22;6804;48.774;9.174;2023-05-10T11:24:01;17.00;99.90
13464;DHT22;6804;48.774;9.174;2023-05-10T11:26:33;17.00;99.90
13464;DHT22;6804;48.774;9.174;2023-05-10T11:29:02;17.10;99.90
13464;DHT22;6804;48.774;9.174;2023-05-10T11:31:30;17.10;99.90
13464;DHT22;6804;48.774;9.174;2023-05-10T11:33:59;17.20;99.90
13464;DHT22;6804;48.774;9.174;2023-05-10T11:36:40;17.30;99.90
13464;DHT22;6804;48.774;9.174;2023-05-10T11:39:09;17.40;99.90
13464;DHT22;6804;48.774;9.174;2023-05-10T11:41:42;17.50;99.90
13464;DHT22;6804;48.774;9.174;2023-05-10T11:44:10;17.60;99.90
13464;DHT22;6804;48.774;9.174;2023-05-10T11:46:41;17.60;99.90
13464;DHT22;6804;48.774;9.174;2023-05-10T11:49:21;17.80;99.90
13464;DHT22;6804;48.774;9.174;2023-05-10T11:51:52;17.80;99.90
13464;DHT22;6804;48.774;9.174;2023-05-10T11:54:20;17.80;99.90
13464;DHT22;6804;48.774;9.174;2023-05-10T11:56:50;17.70;99.90
13464;DHT22;6804;48.774;9.174;2023-05-10T11:59:19;17.70;99.90
13464;DHT22;6804;48.774;9.174;2023-05-10T12:01:51;17.60;99.90
13464;DHT22;6804;48.774;9.174;2023-05-10T12:04:21;17.50;99.90
13464;DHT22;6804;48.774;9.174;2023-05-10T12:06:52;17.50;99.90
13464;DHT22;6804;48.774;9.174;2023-05-10T12:09:22;17.50;99.90
13464;DHT22;6804;48.774;9.174;2023-05-10T12:11:55;17.40;99.90
13464;DHT22;6804;48.774;9.174;2023-05-10T12:14:26;17.50;99.90
13464;DHT22;6804;48.774;9.174;2023-05-10T12:16:59;17.50;99.90
13464;DHT22;6804;48.774;9.174;2023-05-10T12:19:37;17.60;99.90
13464;DHT22;6804;48.774;9.174;2023-05-10T12:22:06;17.70;99.90
13464;DHT22;6804;48.774;9.174;2023-05-10T12:24:45;17.70;99.90
13464;DHT22;6804;48.774;9.174;2023-05-10T12:27:21;17.80;99.90
13464;DHT22;6804;48.774;9.174;2023-05-10T12:29:51;17.70;99.90
13464;DHT22;6804;48.774;9.174;2023-05-10T12:32:20;17.80;99.90
13464;DHT22;6804;48.774;9.174;2023-05-10T12:34:52;17.80;99.90
13464;DHT22;6804;48.774;9.174;2023-05-10T12:37:28;17.80;99.90
13464;DHT22;6804;48.774;9.174;2023-05-10T12:40:01;17.80;99.90
13464;DHT22;6804;48.774;9.174;2023-05-10T12:42:31;17.90;99.90
13464;DHT22;6804;48.774;9.174;2023-05-10T12:45:01;17.90;99.90
13464;DHT22;6804;48.774;9.174;2023-05-10T12:47:32;17.90;99.90
13464;DHT22;6804;48.774;9.174;2023-05-10T12:50:01;17.90;99.90
13464;DHT22;6804;48.774;9.174;2023-05-10T12:52:33;17.90;99.90
13464;DHT22;6804;48.774;9.174;2023-05-10T12:55:04;17.90;99.90
13464;DHT22;6804;48.774;9.174;2023-05-10T12:57:32;18.00;99.90
13464;DHT22;6804;48.774;9.174;2023-05-10T13:00:00;17.90;99.90
13464;DHT22;6804;48.774;9.174;2023-05-10T13:02:32;17.90;99.90
13464;DHT22;6804;48.774;9.174;2023-05-10T13:05:04;17.90;99.90
13464;DHT22;6804;48.774;9.174;2023-05-10T13:07:36;17.90;99.90
13464;DHT22;6804;48.774;9.174;2023-05-10T13:10:06;17.90;99.90
13464;DHT22;6804;48.774;9.174;2023-05-10T13:12:40;17.80;99.90
13464;DHT22;6804;48.774;9.174;2023-05-10T13:15:12;17.80;99.90
13464;DHT22;6804;48.774;9.174;2023-05-10T13:17:43;17.80;99.90
13464;DHT22;6804;48.774;9.174;2023-05-10T13:20:15;17.80;99.90
13464;DHT22;6804;48.774;9.174;2023-05-10T13:22:56;17.80;99.90
13464;DHT22;6804;48.774;9.174;2023-05-10T13:25:24;17.80;99.90
13464;DHT22;6804;48.774;9.174;2023-05-10T13:27:55;17.80;99.90
13464;DHT22;6804;48.774;9.174;2023-05-10T13:30:23;17.80;99.90
13464;DHT22;6804;48.774;9.174;2023-05-10T13:32:54;17.90;99.90
13464;DHT22;6804;48.774;9.174;2023-05-10T13:35:25;18.00;99.90
13464;DHT22;6804;48.774;9.174;2023-05-10T13:37:58;18.00;99.90
13464;DHT22;6804;48.774;9.174;2023-05-10T13:40:26;18.10;99.90
13464;DHT22;6804;48.774;9.174;2023-05-10T13:42:54;18.10;99.90
13464;DHT22;6804;48.774;9.174;2023-05-10T13:45:30;18.20;99.90
13464;DHT22;6804;48.774;9.174;2023-05-10T13:48:00;18.20;99.90
13464;DHT22;6804;48.774;9.174;2023-05-10T13:50:31;18.20;99.90
13464;DHT22;6804;48.774;9.174;2023-05-10T13:53:03;18.20;99.90
13464;DHT22;6804;48.774;9.174;2023-05-10T13:55:36;18.20;99.90
13464;DHT22;6804;48.774;9.174;2023-05-10T13:58:03;18.30;99.90
13464;DHT22;6804;48.774;9.174;2023-05-10T14:00:33;18.20;99.90
13464;DHT22;6804;48.774;9.174;2023-05-10T14:03:04;18.30;99.90
13464;DHT22;6804;48.774;9.174;2023-05-10T14:05:33;18.30;99.90
13464;DHT22;6804;48.774;9.174;2023-05-10T14:08:05;18.40;99.90
13464;DHT22;6804;48.774;9.174;2023-05-10T14:10:35;18.30;99.90
13464;DHT22;6804;48.774;9.174;2023-05-10T14:13:04;18.20;99.90
13464;DHT22;6804;48.774;9.174;2023-05-10T14:15:34;18.20;99.90
13464;DHT22;6804;48.774;9.174;2023-05-10T14:18:04;18.30;99.90
13464;DHT22;6804;48.774;9.174;2023-05-10T14:20:32;18.30;99.90
13464;DHT22;6804;48.774;9.174;2023-05-10T14:23:04;18.40;99.90
13464;DHT22;6804;48.774;9.174;2023-05-10T14:25:32;18.40;99.90
13464;DHT22;6804;48.774;9.174;2023-05-10T14:28:01;18.40;99.90
13464;DHT22;6804;48.774;9.174;2023-05-10T14:30:34;18.50;99.90
13464;DHT22;6804;48.774;9.174;2023-05-10T14:33:05;18.50;99.90
13464;DHT22;6804;48.774;9.174;2023-05-10T14:35:34;18.50;99.90
13464;DHT22;6804;48.774;9.174;2023-05-10T14:38:04;18.40;99.90
13464;DHT22;6804;48.774;9.174;2023-05-10T14:40:33;18.40;99.90
13464;DHT22;6804;48.774;9.174;2023-05-10T14:43:01;18.40;99.90
13464;DHT22;6804;48.774;9.174;2023-05-10T14:45:29;18.50;99.90
13464;DHT22;6804;48.774;9.174;2023-05-10T14:47:57;18.60;99.90
13464;DHT22;6804;48.774;9.174;2023-05-10T14:50:25;18.60;99.90
13464;DHT22;6804;48.774;9.174;2023-05-10T14:52:53;18.60;99.90
13464;DHT22;6804;48.774;9.174;2023-05-10T14:55:24;18.60;99.90
13464;DHT22;6804;48.774;9.174;2023-05-10T14:57:52;18.60;99.90
13464;DHT22;6804;48.774;9.174;2023-05-10T15:00:25;18.60;99.90
13464;DHT22;6804;48.774;9.174;2023-05-10T15:02:55;18.60;99.90
13464;DHT22;6804;48.774;9.174;2023-05-10T15:05:24;18.60;99.90
13464;DHT22;6804;48.774;9.174;2023-05-10T15:07:52;18.60;99.90
13464;DHT22;6804;48.774;9.174;2023-05-10T15:10:27;18.60;99.90
13464;DHT22;6804;48.774;9.174;2023-05-10T15:12:55;18.70;99.90
13464;DHT22;6804;48.774;9.174;2023-05-10T15:15:25;18.60;99.90
13464;DHT22;6804;48.774;9.174;2023-05-10T15:17:55;18.70;99.90
13464;DHT22;6804;48.774;9.174;2023-05-10T15:20:27;18.70;99.90
13464;DHT22;6804;48.774;9.174;2023-05-10T15:22:57;18.80;99.90
13464;DHT22;6804;48.774;9.174;2023-05-10T15:25:30;18.80;99.90
13464;DHT22;6804;48.774;9.174;2023-05-10T15:28:00;18.90;99.90
13464;DHT22;6804;48.774;9.174;2023-05-10T15:30:41;18.90;99.90
13464;DHT22;6804;48.774;9.174;2023-05-10T15:33:10;18.90;99.90
13464;DHT22;6804;48.774;9.174;2023-05-10T15:35:42;18.90;99.90
13464;DHT22;6804;48.774;9.174;2023-05-10T15:38:10;18.80;99.90
13464;DHT22;6804;48.774;9.174;2023-05-10T15:40:42;18.80;99.90
13464;DHT22;6804;48.774;9.174;2023-05-10T15:43:11;18.80;99.90
13464;DHT22;6804;48.774;9.174;2023-05-10T15:45:39;18.80;99.90
13464;DHT22;6804;48.774;9.174;2023-05-10T15:48:07;18.80;99.90
13464;DHT22;6804;48.774;9.174;2023-05-10T15:50:35;18.80;99.90
13464;DHT22;6804;48.774;9.174;2023-05-10T15:53:06;18.80;99.90
13464;DHT22;6804;48.774;9.174;2023-05-10T15:55:36;18.70;99.90
13464;DHT22;6804;48.774;9.174;2023-05-10T15:58:09;18.70;99.90
13464;DHT22;6804;48.774;9.174;2023-05-10T16:00:38;18.80;99.90
13464;DHT22;6804;48.774;9.174;2023-05-10T16:03:09;18.70;99.90
13464;DHT22;6804;48.774;9.174;2023-05-10T16:05:37;18.60;99.90
13464;DHT22;6804;48.774;9.174;2023-05-10T16:08:05;18.60;99.90
13464;DHT22;6804;48.774;9.174;2023-05-10T16:10:36;18.50;99.90
13464;DHT22;6804;48.774;9.174;2023-05-10T16:13:08;18.40;99.90
13464;DHT22;6804;48.774;9.174;2023-05-10T16:15:38;18.40;99.90